sensor_id;sensor_type;location;lat;lon;timestamp;P1;durP1;ratioP1;P2;durP2;ratioP2
56242;SDS011;42155;53.096;23.226;2023-11-21T00:01:37;18.55;;;7.85;;
56242;SDS011;42155;53.096;23.226;2023-11-21T00:03:37;19.63;;;9.18;;
56242;SDS011;42155;53.096;23.226;2023-11-21T00:05:37;23.73;;;9.10;;
56242;SDS011;42155;53.096;23.226;2023-11-21T00:07:38;25.75;;;10.27;;
56242;SDS011;42155;53.096;23.226;2023-11-21T00:09:38;22.00;;;8.93;;
56242;SDS011;42155;53.096;23.226;2023-11-21T00:11:38;17.27;;;7.93;;
56242;SDS011;42155;53.096;23.226;2023-11-21T00:13:39;18.67;;;8.88;;
56242;SDS011;42155;53.096;23.226;2023-11-21T00:15:39;19.60;;;8.70;;
56242;SDS011;42155;53.096;23.226;2023-11-21T00:17:40;20.38;;;8.07;;
56242;SDS011;42155;53.096;23.226;2023-11-21T00:19:40;22.10;;;8.13;;
56242;SDS011;42155;53.096;23.226;2023-11-21T00:21:41;17.60;;;8.80;;
56242;SDS011;42155;53.096;23.226;2023-11-21T00:23:41;20.05;;;9.18;;
56242;SDS011;42155;53.096;23.226;2023-11-21T00:25:41;22.83;;;9.02;;
56242;SDS011;42155;53.096;23.226;2023-11-21T00:27:42;20.98;;;8.93;;
56242;SDS011;42155;53.096;23.226;2023-11-21T00:29:42;16.25;;;8.07;;
56242;SDS011;42155;53.096;23.226;2023-11-21T00:31:43;20.92;;;10.13;;
56242;SDS011;42155;53.096;23.226;2023-11-21T00:33:43;18.25;;;7.68;;
56242;SDS011;42155;53.096;23.226;2023-11-21T00:35:44;23.90;;;9.93;;
56242;SDS011;42155;53.096;23.226;2023-11-21T00:37:44;22.00;;;9.02;;
56242;SDS011;42155;53.096;23.226;2023-11-21T00:39:44;18.70;;;8.60;;
56242;SDS011;42155;53.096;23.226;2023-11-21T00:41:45;18.35;;;7.68;;
56242;SDS011;42155;53.096;23.226;2023-11-21T00:43:45;17.17;;;8.32;;
56242;SDS011;42155;53.096;23.226;2023-11-21T00:45:45;24.17;;;9.65;;
56242;SDS011;42155;53.096;23.226;2023-11-21T00:47:45;19.48;;;8.52;;
56242;SDS011;42155;53.096;23.226;2023-11-21T00:49:46;14.85;;;7.88;;
56242;SDS011;42155;53.096;23.226;2023-11-21T00:51:46;17.85;;;8.23;;
56242;SDS011;42155;53.096;23.226;2023-11-21T00:53:47;17.73;;;8.65;;
56242;SDS011;42155;53.096;23.226;2023-11-21T00:55:47;16.42;;;8.40;;
56242;SDS011;42155;53.096;23.226;2023-11-21T00:57:48;19.33;;;9.32;;
56242;SDS011;42155;53.096;23.226;2023-11-21T00:59:48;21.48;;;9.75;;
56242;SDS011;42155;53.096;23.226;2023-11-21T01:01:48;14.88;;;7.78;;
56242;SDS011;42155;53.096;23.226;2023-11-21T01:03:49;15.38;;;7.95;;
56242;SDS011;42155;53.096;23.226;2023-11-21T01:05:49;13.48;;;7.07;;
56242;SDS011;42155;53.096;23.226;2023-11-21T01:07:49;16.90;;;7.82;;
56242;SDS011;42155;53.096;23.226;2023-11-21T01:09:50;17.70;;;8.15;;
56242;SDS011;42155;53.096;23.226;2023-11-21T01:11:50;15.95;;;7.43;;
56242;SDS011;42155;53.096;23.226;2023-11-21T01:13:50;17.65;;;8.32;;
56242;SDS011;42155;53.096;23.226;2023-11-21T01:15:51;13.68;;;7.30;;
56242;SDS011;42155;53.096;23.226;2023-11-21T01:17:51;16.65;;;8.30;;
56242;SDS011;42155;53.096;23.226;2023-11-21T01:19:52;14.60;;;7.60;;
56242;SDS011;42155;53.096;23.226;2023-11-21T01:21:52;18.40;;;7.97;;
56242;SDS011;42155;53.096;23.226;2023-11-21T01:23:52;12.27;;;6.72;;
56242;SDS011;42155;53.096;23.226;2023-11-21T01:25:54;12.95;;;7.20;;
56242;SDS011;42155;53.096;23.226;2023-11-21T01:27:55;14.07;;;6.97;;
56242;SDS011;42155;53.096;23.226;2023-11-21T01:29:56;15.10;;;7.07;;
56242;SDS011;42155;53.096;23.226;2023-11-21T01:31:56;15.35;;;7.88;;
56242;SDS011;42155;53.096;23.226;2023-11-21T01:33:56;13.13;;;7.10;;
56242;SDS011;42155;53.096;23.226;2023-11-21T01:35:57;16.08;;;8.13;;
56242;SDS011;42155;53.096;23.226;2023-11-21T01:37:57;20.65;;;7.43;;
56242;SDS011;42155;53.096;23.226;2023-11-21T01:39:58;12.88;;;7.35;;
56242;SDS011;42155;53.096;23.226;2023-11-21T01:41:59;12.02;;;6.85;;
56242;SDS011;42155;53.096;23.226;2023-11-21T01:43:59;18.27;;;7.15;;
56242;SDS011;42155;53.096;23.226;2023-11-21T01:45:59;14.82;;;7.80;;
56242;SDS011;42155;53.096;23.226;2023-11-21T01:48:00;13.23;;;7.10;;
56242;SDS011;42155;53.096;23.226;2023-11-21T01:50:02;14.10;;;7.47;;
56242;SDS011;42155;53.096;23.226;2023-11-21T01:52:03;14.15;;;7.68;;
56242;SDS011;42155;53.096;23.226;2023-11-21T01:54:04;20.27;;;7.93;;
56242;SDS011;42155;53.096;23.226;2023-11-21T01:56:05;12.80;;;6.53;;
56242;SDS011;42155;53.096;23.226;2023-11-21T01:58:05;13.98;;;6.80;;
56242;SDS011;42155;53.096;23.226;2023-11-21T02:00:06;13.30;;;6.97;;
56242;SDS011;42155;53.096;23.226;2023-11-21T02:02:07;15.15;;;7.63;;
56242;SDS011;42155;53.096;23.226;2023-11-21T02:04:08;14.10;;;7.03;;
56242;SDS011;42155;53.096;23.226;2023-11-21T02:06:08;13.23;;;6.47;;
56242;SDS011;42155;53.096;23.226;2023-11-21T02:08:08;12.93;;;6.80;;
56242;SDS011;42155;53.096;23.226;2023-11-21T02:10:09;13.20;;;6.72;;
56242;SDS011;42155;53.096;23.226;2023-11-21T02:12:09;13.65;;;6.70;;
56242;SDS011;42155;53.096;23.226;2023-11-21T02:14:10;17.70;;;7.53;;
56242;SDS011;42155;53.096;23.226;2023-11-21T02:16:10;15.45;;;7.38;;
56242;SDS011;42155;53.096;23.226;2023-11-21T02:18:11;14.10;;;7.45;;
56242;SDS011;42155;53.096;23.226;2023-11-21T02:20:11;15.50;;;6.70;;
56242;SDS011;42155;53.096;23.226;2023-11-21T02:22:12;12.75;;;6.85;;
56242;SDS011;42155;53.096;23.226;2023-11-21T02:24:14;13.68;;;6.35;;
56242;SDS011;42155;53.096;23.226;2023-11-21T02:26:14;21.48;;;8.55;;
56242;SDS011;42155;53.096;23.226;2023-11-21T02:28:14;15.90;;;7.13;;
56242;SDS011;42155;53.096;23.226;2023-11-21T02:30:15;15.65;;;7.18;;
56242;SDS011;42155;53.096;23.226;2023-11-21T02:32:15;14.18;;;7.18;;
56242;SDS011;42155;53.096;23.226;2023-11-21T02:34:17;13.30;;;6.38;;
56242;SDS011;42155;53.096;23.226;2023-11-21T02:36:17;14.10;;;7.10;;
56242;SDS011;42155;53.096;23.226;2023-11-21T02:38:18;12.35;;;6.75;;
56242;SDS011;42155;53.096;23.226;2023-11-21T02:40:18;11.15;;;5.88;;
56242;SDS011;42155;53.096;23.226;2023-11-21T02:42:19;11.05;;;5.93;;
56242;SDS011;42155;53.096;23.226;2023-11-21T02:44:19;12.00;;;6.25;;
56242;SDS011;42155;53.096;23.226;2023-11-21T02:46:19;12.02;;;5.88;;
56242;SDS011;42155;53.096;23.226;2023-11-21T02:48:20;9.82;;;5.70;;
56242;SDS011;42155;53.096;23.226;2023-11-21T02:50:20;13.75;;;6.22;;
56242;SDS011;42155;53.096;23.226;2023-11-21T02:52:20;12.55;;;6.43;;
56242;SDS011;42155;53.096;23.226;2023-11-21T02:54:21;12.75;;;5.80;;
56242;SDS011;42155;53.096;23.226;2023-11-21T02:56:21;14.35;;;6.93;;
56242;SDS011;42155;53.096;23.226;2023-11-21T02:58:21;11.63;;;6.28;;
56242;SDS011;42155;53.096;23.226;2023-11-21T03:00:22;11.60;;;6.70;;
56242;SDS011;42155;53.096;23.226;2023-11-21T03:02:22;9.05;;;5.47;;
56242;SDS011;42155;53.096;23.226;2023-11-21T03:04:23;10.70;;;5.88;;
56242;SDS011;42155;53.096;23.226;2023-11-21T03:06:23;10.90;;;6.18;;
56242;SDS011;42155;53.096;23.226;2023-11-21T03:08:23;14.15;;;6.47;;
56242;SDS011;42155;53.096;23.226;2023-11-21T03:10:24;12.93;;;6.20;;
56242;SDS011;42155;53.096;23.226;2023-11-21T03:12:24;12.32;;;6.05;;
56242;SDS011;42155;53.096;23.226;2023-11-21T03:14:24;19.95;;;8.45;;
56242;SDS011;42155;53.096;23.226;2023-11-21T03:16:25;15.10;;;7.60;;
56242;SDS011;42155;53.096;23.226;2023-11-21T03:18:25;15.52;;;8.15;;
56242;SDS011;42155;53.096;23.226;2023-11-21T03:20:25;13.85;;;6.80;;
56242;SDS011;42155;53.096;23.226;2023-11-21T03:22:26;20.90;;;8.90;;
56242;SDS011;42155;53.096;23.226;2023-11-21T03:24:26;18.17;;;8.55;;
56242;SDS011;42155;53.096;23.226;2023-11-21T03:26:26;15.45;;;7.20;;
56242;SDS011;42155;53.096;23.226;2023-11-21T03:28:26;12.63;;;6.13;;
56242;SDS011;42155;53.096;23.226;2023-11-21T03:30:27;19.40;;;7.78;;
56242;SDS011;42155;53.096;23.226;2023-11-21T03:32:27;17.33;;;8.23;;
56242;SDS011;42155;53.096;23.226;2023-11-21T03:34:28;16.60;;;7.97;;
56242;SDS011;42155;53.096;23.226;2023-11-21T03:36:28;13.55;;;6.72;;
56242;SDS011;42155;53.096;23.226;2023-11-21T03:38:28;12.45;;;6.85;;
56242;SDS011;42155;53.096;23.226;2023-11-21T03:40:29;14.32;;;6.32;;
56242;SDS011;42155;53.096;23.226;2023-11-21T03:42:29;11.23;;;6.82;;
56242;SDS011;42155;53.096;23.226;2023-11-21T03:44:30;11.32;;;6.00;;
56242;SDS011;42155;53.096;23.226;2023-11-21T03:46:30;13.82;;;6.97;;
56242;SDS011;42155;53.096;23.226;2023-11-21T03:48:30;13.57;;;6.95;;
56242;SDS011;42155;53.096;23.226;2023-11-21T03:50:31;12.98;;;6.10;;
56242;SDS011;42155;53.096;23.226;2023-11-21T03:52:31;13.85;;;6.57;;
56242;SDS011;42155;53.096;23.226;2023-11-21T03:54:31;16.30;;;8.77;;
56242;SDS011;42155;53.096;23.226;2023-11-21T03:56:31;14.15;;;6.88;;
56242;SDS011;42155;53.096;23.226;2023-11-21T03:58:32;13.77;;;7.07;;
56242;SDS011;42155;53.096;23.226;2023-11-21T04:00:32;16.65;;;8.95;;
56242;SDS011;42155;53.096;23.226;2023-11-21T04:02:32;11.05;;;5.75;;
56242;SDS011;42155;53.096;23.226;2023-11-21T04:04:33;14.15;;;6.72;;
56242;SDS011;42155;53.096;23.226;2023-11-21T04:06:34;12.18;;;6.82;;
56242;SDS011;42155;53.096;23.226;2023-11-21T04:08:34;11.35;;;5.70;;
56242;SDS011;42155;53.096;23.226;2023-11-21T04:10:34;11.98;;;5.93;;
56242;SDS011;42155;53.096;23.226;2023-11-21T04:12:35;12.18;;;5.80;;
56242;SDS011;42155;53.096;23.226;2023-11-21T04:14:36;13.68;;;5.72;;
56242;SDS011;42155;53.096;23.226;2023-11-21T04:16:36;11.10;;;5.60;;
56242;SDS011;42155;53.096;23.226;2023-11-21T04:18:36;11.82;;;5.65;;
56242;SDS011;42155;53.096;23.226;2023-11-21T04:20:37;13.18;;;6.50;;
56242;SDS011;42155;53.096;23.226;2023-11-21T04:22:40;10.95;;;5.72;;
56242;SDS011;42155;53.096;23.226;2023-11-21T04:24:43;10.25;;;5.97;;
56242;SDS011;42155;53.096;23.226;2023-11-21T04:26:43;9.30;;;5.20;;
56242;SDS011;42155;53.096;23.226;2023-11-21T04:28:44;11.27;;;5.50;;
56242;SDS011;42155;53.096;23.226;2023-11-21T04:30:44;9.15;;;5.35;;
56242;SDS011;42155;53.096;23.226;2023-11-21T04:32:44;11.23;;;5.68;;
56242;SDS011;42155;53.096;23.226;2023-11-21T04:34:45;10.73;;;5.88;;
56242;SDS011;42155;53.096;23.226;2023-11-21T04:36:45;11.80;;;5.45;;
56242;SDS011;42155;53.096;23.226;2023-11-21T04:38:45;9.02;;;4.28;;
56242;SDS011;42155;53.096;23.226;2023-11-21T04:40:46;9.50;;;5.07;;
56242;SDS011;42155;53.096;23.226;2023-11-21T04:42:46;10.73;;;5.07;;
56242;SDS011;42155;53.096;23.226;2023-11-21T04:44:47;11.70;;;5.15;;
56242;SDS011;42155;53.096;23.226;2023-11-21T04:46:47;8.85;;;5.05;;
56242;SDS011;42155;53.096;23.226;2023-11-21T04:48:47;9.52;;;5.15;;
56242;SDS011;42155;53.096;23.226;2023-11-21T04:50:48;8.45;;;4.55;;
56242;SDS011;42155;53.096;23.226;2023-11-21T04:52:48;11.30;;;5.45;;
56242;SDS011;42155;53.096;23.226;2023-11-21T04:54:48;9.23;;;4.85;;
56242;SDS011;42155;53.096;23.226;2023-11-21T04:56:49;8.20;;;4.38;;
56242;SDS011;42155;53.096;23.226;2023-11-21T04:58:49;8.93;;;4.68;;
56242;SDS011;42155;53.096;23.226;2023-11-21T05:00:49;9.07;;;5.05;;
56242;SDS011;42155;53.096;23.226;2023-11-21T05:02:50;9.82;;;5.43;;
56242;SDS011;42155;53.096;23.226;2023-11-21T05:04:50;10.93;;;5.28;;
56242;SDS011;42155;53.096;23.226;2023-11-21T05:06:50;9.70;;;5.22;;
56242;SDS011;42155;53.096;23.226;2023-11-21T05:08:50;10.50;;;5.38;;
56242;SDS011;42155;53.096;23.226;2023-11-21T05:10:51;12.93;;;6.22;;
56242;SDS011;42155;53.096;23.226;2023-11-21T05:12:52;10.00;;;5.25;;
56242;SDS011;42155;53.096;23.226;2023-11-21T05:14:52;14.57;;;6.72;;
56242;SDS011;42155;53.096;23.226;2023-11-21T05:16:52;7.95;;;4.85;;
56242;SDS011;42155;53.096;23.226;2023-11-21T05:18:53;8.60;;;4.32;;
56242;SDS011;42155;53.096;23.226;2023-11-21T05:20:53;10.65;;;4.95;;
56242;SDS011;42155;53.096;23.226;2023-11-21T05:22:53;8.45;;;4.53;;
56242;SDS011;42155;53.096;23.226;2023-11-21T05:24:54;10.70;;;5.30;;
56242;SDS011;42155;53.096;23.226;2023-11-21T05:26:54;10.55;;;5.15;;
56242;SDS011;42155;53.096;23.226;2023-11-21T05:28:54;8.50;;;4.72;;
56242;SDS011;42155;53.096;23.226;2023-11-21T05:30:55;11.20;;;5.72;;
56242;SDS011;42155;53.096;23.226;2023-11-21T05:32:55;10.35;;;5.65;;
56242;SDS011;42155;53.096;23.226;2023-11-21T05:34:56;12.05;;;5.50;;
56242;SDS011;42155;53.096;23.226;2023-11-21T05:36:56;9.23;;;5.00;;
56242;SDS011;42155;53.096;23.226;2023-11-21T05:38:56;9.88;;;5.03;;
56242;SDS011;42155;53.096;23.226;2023-11-21T05:40:57;10.95;;;5.63;;
56242;SDS011;42155;53.096;23.226;2023-11-21T05:42:57;9.90;;;4.82;;
56242;SDS011;42155;53.096;23.226;2023-11-21T05:44:57;10.70;;;5.65;;
56242;SDS011;42155;53.096;23.226;2023-11-21T05:46:59;10.25;;;4.88;;
56242;SDS011;42155;53.096;23.226;2023-11-21T05:48:59;13.60;;;5.32;;
56242;SDS011;42155;53.096;23.226;2023-11-21T05:51:00;8.95;;;4.90;;
56242;SDS011;42155;53.096;23.226;2023-11-21T05:53:00;9.13;;;5.25;;
56242;SDS011;42155;53.096;23.226;2023-11-21T05:55:01;8.80;;;4.88;;
56242;SDS011;42155;53.096;23.226;2023-11-21T05:57:01;14.05;;;6.10;;
56242;SDS011;42155;53.096;23.226;2023-11-21T05:59:01;11.38;;;5.40;;
56242;SDS011;42155;53.096;23.226;2023-11-21T06:01:02;12.98;;;6.20;;
56242;SDS011;42155;53.096;23.226;2023-11-21T06:03:05;13.88;;;6.43;;
56242;SDS011;42155;53.096;23.226;2023-11-21T06:05:06;13.43;;;6.63;;
56242;SDS011;42155;53.096;23.226;2023-11-21T06:07:07;11.50;;;5.75;;
56242;SDS011;42155;53.096;23.226;2023-11-21T06:09:08;16.63;;;7.43;;
56242;SDS011;42155;53.096;23.226;2023-11-21T06:11:08;18.42;;;7.70;;
56242;SDS011;42155;53.096;23.226;2023-11-21T06:13:08;23.35;;;9.27;;
56242;SDS011;42155;53.096;23.226;2023-11-21T06:15:10;19.42;;;8.45;;
56242;SDS011;42155;53.096;23.226;2023-11-21T06:17:10;23.17;;;9.52;;
56242;SDS011;42155;53.096;23.226;2023-11-21T06:19:11;20.27;;;9.38;;
56242;SDS011;42155;53.096;23.226;2023-11-21T06:21:11;17.20;;;8.18;;
56242;SDS011;42155;53.096;23.226;2023-11-21T06:23:12;16.85;;;8.05;;
56242;SDS011;42155;53.096;23.226;2023-11-21T06:25:12;23.75;;;11.73;;
56242;SDS011;42155;53.096;23.226;2023-11-21T06:27:13;10.13;;;6.30;;
56242;SDS011;42155;53.096;23.226;2023-11-21T06:29:14;14.23;;;7.22;;
56242;SDS011;42155;53.096;23.226;2023-11-21T06:31:14;15.38;;;5.78;;
56242;SDS011;42155;53.096;23.226;2023-11-21T06:33:14;14.35;;;5.50;;
56242;SDS011;42155;53.096;23.226;2023-11-21T06:35:15;9.75;;;4.78;;
56242;SDS011;42155;53.096;23.226;2023-11-21T06:37:15;12.40;;;5.95;;
56242;SDS011;42155;53.096;23.226;2023-11-21T06:39:15;9.75;;;5.65;;
56242;SDS011;42155;53.096;23.226;2023-11-21T06:41:16;13.82;;;5.57;;
56242;SDS011;42155;53.096;23.226;2023-11-21T06:43:16;9.07;;;4.90;;
56242;SDS011;42155;53.096;23.226;2023-11-21T06:45:16;12.10;;;6.47;;
56242;SDS011;42155;53.096;23.226;2023-11-21T06:47:17;13.35;;;6.68;;
56242;SDS011;42155;53.096;23.226;2023-11-21T06:49:18;10.55;;;5.53;;
56242;SDS011;42155;53.096;23.226;2023-11-21T06:51:18;12.88;;;6.10;;
56242;SDS011;42155;53.096;23.226;2023-11-21T06:53:18;12.80;;;6.07;;
56242;SDS011;42155;53.096;23.226;2023-11-21T06:55:19;12.52;;;5.43;;
56242;SDS011;42155;53.096;23.226;2023-11-21T06:57:19;16.02;;;7.07;;
56242;SDS011;42155;53.096;23.226;2023-11-21T06:59:19;17.00;;;7.75;;
56242;SDS011;42155;53.096;23.226;2023-11-21T07:01:20;11.52;;;6.00;;
56242;SDS011;42155;53.096;23.226;2023-11-21T07:03:20;10.48;;;5.75;;
56242;SDS011;42155;53.096;23.226;2023-11-21T07:05:21;11.38;;;6.00;;
56242;SDS011;42155;53.096;23.226;2023-11-21T07:07:22;11.90;;;6.10;;
56242;SDS011;42155;53.096;23.226;2023-11-21T07:09:22;9.80;;;5.22;;
56242;SDS011;42155;53.096;23.226;2023-11-21T07:11:22;8.93;;;4.95;;
56242;SDS011;42155;53.096;23.226;2023-11-21T07:13:23;12.55;;;6.07;;
56242;SDS011;42155;53.096;23.226;2023-11-21T07:15:23;11.93;;;5.78;;
56242;SDS011;42155;53.096;23.226;2023-11-21T07:17:24;13.75;;;6.45;;
56242;SDS011;42155;53.096;23.226;2023-11-21T07:19:24;14.65;;;6.47;;
56242;SDS011;42155;53.096;23.226;2023-11-21T07:21:24;19.42;;;7.00;;
56242;SDS011;42155;53.096;23.226;2023-11-21T07:23:25;19.42;;;9.23;;
56242;SDS011;42155;53.096;23.226;2023-11-21T07:25:25;19.55;;;7.97;;
56242;SDS011;42155;53.096;23.226;2023-11-21T07:27:25;18.67;;;8.20;;
56242;SDS011;42155;53.096;23.226;2023-11-21T07:29:26;14.02;;;6.80;;
56242;SDS011;42155;53.096;23.226;2023-11-21T07:31:26;9.30;;;5.22;;
56242;SDS011;42155;53.096;23.226;2023-11-21T07:33:27;16.70;;;7.90;;
56242;SDS011;42155;53.096;23.226;2023-11-21T07:35:27;14.02;;;6.13;;
56242;SDS011;42155;53.096;23.226;2023-11-21T07:37:27;13.00;;;5.35;;
56242;SDS011;42155;53.096;23.226;2023-11-21T07:39:28;11.98;;;5.60;;
56242;SDS011;42155;53.096;23.226;2023-11-21T07:41:28;15.50;;;7.40;;
56242;SDS011;42155;53.096;23.226;2023-11-21T07:43:29;23.70;;;7.88;;
56242;SDS011;42155;53.096;23.226;2023-11-21T07:45:29;20.42;;;8.82;;
56242;SDS011;42155;53.096;23.226;2023-11-21T07:47:29;28.63;;;11.20;;
56242;SDS011;42155;53.096;23.226;2023-11-21T07:49:30;25.13;;;9.90;;
56242;SDS011;42155;53.096;23.226;2023-11-21T07:51:30;24.60;;;8.68;;
56242;SDS011;42155;53.096;23.226;2023-11-21T07:53:30;18.77;;;7.72;;
56242;SDS011;42155;53.096;23.226;2023-11-21T07:55:31;11.32;;;5.82;;
56242;SDS011;42155;53.096;23.226;2023-11-21T07:57:31;13.98;;;5.50;;
56242;SDS011;42155;53.096;23.226;2023-11-21T07:59:32;11.38;;;5.97;;
56242;SDS011;42155;53.096;23.226;2023-11-21T08:01:32;12.68;;;5.82;;
56242;SDS011;42155;53.096;23.226;2023-11-21T08:03:32;12.27;;;5.85;;
56242;SDS011;42155;53.096;23.226;2023-11-21T08:05:33;12.65;;;6.45;;
56242;SDS011;42155;53.096;23.226;2023-11-21T08:07:33;11.00;;;5.80;;
56242;SDS011;42155;53.096;23.226;2023-11-21T08:09:34;14.70;;;5.60;;
56242;SDS011;42155;53.096;23.226;2023-11-21T08:11:34;11.30;;;5.75;;
56242;SDS011;42155;53.096;23.226;2023-11-21T08:13:34;10.18;;;5.50;;
56242;SDS011;42155;53.096;23.226;2023-11-21T08:15:34;11.95;;;6.18;;
56242;SDS011;42155;53.096;23.226;2023-11-21T08:17:35;12.68;;;5.72;;
56242;SDS011;42155;53.096;23.226;2023-11-21T08:19:36;13.93;;;5.30;;
56242;SDS011;42155;53.096;23.226;2023-11-21T08:21:36;12.43;;;5.32;;
56242;SDS011;42155;53.096;23.226;2023-11-21T08:23:36;10.35;;;4.88;;
56242;SDS011;42155;53.096;23.226;2023-11-21T08:25:37;8.38;;;4.82;;
56242;SDS011;42155;53.096;23.226;2023-11-21T08:27:37;9.18;;;4.75;;
56242;SDS011;42155;53.096;23.226;2023-11-21T08:29:37;9.88;;;4.63;;
56242;SDS011;42155;53.096;23.226;2023-11-21T08:31:38;9.38;;;4.95;;
56242;SDS011;42155;53.096;23.226;2023-11-21T08:33:38;11.18;;;5.05;;
56242;SDS011;42155;53.096;23.226;2023-11-21T08:35:38;7.55;;;4.65;;
56242;SDS011;42155;53.096;23.226;2023-11-21T08:37:39;8.38;;;4.45;;
56242;SDS011;42155;53.096;23.226;2023-11-21T08:39:39;10.05;;;4.47;;
56242;SDS011;42155;53.096;23.226;2023-11-21T08:41:39;12.07;;;5.25;;
56242;SDS011;42155;53.096;23.226;2023-11-21T08:43:40;10.77;;;5.20;;
56242;SDS011;42155;53.096;23.226;2023-11-21T08:45:40;8.77;;;4.95;;
56242;SDS011;42155;53.096;23.226;2023-11-21T08:47:40;9.35;;;4.70;;
56242;SDS011;42155;53.096;23.226;2023-11-21T08:49:41;8.85;;;4.95;;
56242;SDS011;42155;53.096;23.226;2023-11-21T08:51:41;9.82;;;5.78;;
56242;SDS011;42155;53.096;23.226;2023-11-21T08:53:41;12.50;;;5.88;;
56242;SDS011;42155;53.096;23.226;2023-11-21T08:55:42;14.05;;;5.43;;
56242;SDS011;42155;53.096;23.226;2023-11-21T08:57:43;8.23;;;4.35;;
56242;SDS011;42155;53.096;23.226;2023-11-21T08:59:44;11.13;;;4.72;;
56242;SDS011;42155;53.096;23.226;2023-11-21T09:01:44;11.07;;;4.93;;
56242;SDS011;42155;53.096;23.226;2023-11-21T09:03:45;7.97;;;4.05;;
56242;SDS011;42155;53.096;23.226;2023-11-21T09:05:45;11.55;;;4.50;;
56242;SDS011;42155;53.096;23.226;2023-11-21T09:07:45;6.80;;;4.07;;
56242;SDS011;42155;53.096;23.226;2023-11-21T09:09:49;9.70;;;4.65;;
56242;SDS011;42155;53.096;23.226;2023-11-21T09:11:49;11.65;;;4.57;;
56242;SDS011;42155;53.096;23.226;2023-11-21T09:13:49;11.18;;;5.50;;
56242;SDS011;42155;53.096;23.226;2023-11-21T09:15:50;8.60;;;4.45;;
56242;SDS011;42155;53.096;23.226;2023-11-21T09:17:50;10.23;;;5.25;;
56242;SDS011;42155;53.096;23.226;2023-11-21T09:19:50;12.70;;;4.80;;
56242;SDS011;42155;53.096;23.226;2023-11-21T09:21:51;16.23;;;7.20;;
56242;SDS011;42155;53.096;23.226;2023-11-21T09:23:51;15.50;;;7.07;;
56242;SDS011;42155;53.096;23.226;2023-11-21T09:25:51;14.85;;;7.05;;
56242;SDS011;42155;53.096;23.226;2023-11-21T09:27:52;14.32;;;6.70;;
56242;SDS011;42155;53.096;23.226;2023-11-21T09:29:52;15.18;;;6.35;;
56242;SDS011;42155;53.096;23.226;2023-11-21T09:31:53;21.75;;;7.10;;
56242;SDS011;42155;53.096;23.226;2023-11-21T09:33:53;16.88;;;7.55;;
56242;SDS011;42155;53.096;23.226;2023-11-21T09:35:53;16.63;;;7.88;;
56242;SDS011;42155;53.096;23.226;2023-11-21T09:37:54;13.85;;;5.95;;
56242;SDS011;42155;53.096;23.226;2023-11-21T09:39:54;11.15;;;5.38;;
56242;SDS011;42155;53.096;23.226;2023-11-21T09:42:04;11.13;;;4.97;;
56242;SDS011;42155;53.096;23.226;2023-11-21T09:44:11;7.63;;;4.40;;
56242;SDS011;42155;53.096;23.226;2023-11-21T09:46:13;10.40;;;5.28;;
56242;SDS011;42155;53.096;23.226;2023-11-21T09:48:15;11.27;;;5.00;;
56242;SDS011;42155;53.096;23.226;2023-11-21T09:50:17;14.25;;;4.88;;
56242;SDS011;42155;53.096;23.226;2023-11-21T09:52:20;15.00;;;5.32;;
56242;SDS011;42155;53.096;23.226;2023-11-21T09:54:24;13.90;;;5.13;;
56242;SDS011;42155;53.096;23.226;2023-11-21T09:56:25;9.65;;;4.60;;
56242;SDS011;42155;53.096;23.226;2023-11-21T09:58:25;9.82;;;4.05;;
56242;SDS011;42155;53.096;23.226;2023-11-21T10:00:27;12.68;;;5.70;;
56242;SDS011;42155;53.096;23.226;2023-11-21T10:02:28;14.02;;;5.50;;
56242;SDS011;42155;53.096;23.226;2023-11-21T10:04:28;10.88;;;5.10;;
56242;SDS011;42155;53.096;23.226;2023-11-21T10:06:29;12.57;;;5.88;;
56242;SDS011;42155;53.096;23.226;2023-11-21T10:08:30;12.52;;;5.75;;
56242;SDS011;42155;53.096;23.226;2023-11-21T10:10:32;13.10;;;6.40;;
56242;SDS011;42155;53.096;23.226;2023-11-21T10:12:32;19.80;;;6.95;;
56242;SDS011;42155;53.096;23.226;2023-11-21T10:14:35;20.58;;;6.50;;
56242;SDS011;42155;53.096;23.226;2023-11-21T10:16:40;23.00;;;7.70;;
56242;SDS011;42155;53.096;23.226;2023-11-21T10:18:41;11.75;;;5.75;;
56242;SDS011;42155;53.096;23.226;2023-11-21T10:20:42;8.38;;;4.45;;
56242;SDS011;42155;53.096;23.226;2023-11-21T10:22:42;7.30;;;4.00;;
56242;SDS011;42155;53.096;23.226;2023-11-21T10:24:43;7.07;;;4.25;;
56242;SDS011;42155;53.096;23.226;2023-11-21T10:26:43;10.20;;;4.65;;
56242;SDS011;42155;53.096;23.226;2023-11-21T10:28:57;11.48;;;4.60;;
56242;SDS011;42155;53.096;23.226;2023-11-21T10:30:57;13.98;;;5.50;;
56242;SDS011;42155;53.096;23.226;2023-11-21T10:33:00;14.10;;;5.85;;
56242;SDS011;42155;53.096;23.226;2023-11-21T10:35:00;11.32;;;4.93;;
56242;SDS011;42155;53.096;23.226;2023-11-21T10:37:10;8.95;;;4.18;;
56242;SDS011;42155;53.096;23.226;2023-11-21T10:39:16;9.48;;;4.03;;
56242;SDS011;42155;53.096;23.226;2023-11-21T10:41:20;10.10;;;3.90;;
56242;SDS011;42155;53.096;23.226;2023-11-21T10:43:24;9.35;;;4.22;;
56242;SDS011;42155;53.096;23.226;2023-11-21T10:45:25;9.82;;;4.82;;
56242;SDS011;42155;53.096;23.226;2023-11-21T10:47:25;10.82;;;4.63;;
56242;SDS011;42155;53.096;23.226;2023-11-21T10:49:26;12.77;;;4.88;;
56242;SDS011;42155;53.096;23.226;2023-11-21T10:51:27;9.57;;;4.93;;
56242;SDS011;42155;53.096;23.226;2023-11-21T10:53:28;9.45;;;3.60;;
56242;SDS011;42155;53.096;23.226;2023-11-21T10:55:29;7.05;;;3.20;;
56242;SDS011;42155;53.096;23.226;2023-11-21T10:57:30;6.63;;;3.25;;
56242;SDS011;42155;53.096;23.226;2023-11-21T10:59:31;9.18;;;3.58;;
56242;SDS011;42155;53.096;23.226;2023-11-21T11:01:31;8.85;;;4.25;;
56242;SDS011;42155;53.096;23.226;2023-11-21T11:03:32;8.98;;;3.58;;
56242;SDS011;42155;53.096;23.226;2023-11-21T11:05:33;6.80;;;3.38;;
56242;SDS011;42155;53.096;23.226;2023-11-21T11:07:34;12.73;;;4.28;;
56242;SDS011;42155;53.096;23.226;2023-11-21T11:09:36;8.85;;;3.75;;
56242;SDS011;42155;53.096;23.226;2023-11-21T11:11:37;7.97;;;3.38;;
56242;SDS011;42155;53.096;23.226;2023-11-21T11:13:37;5.68;;;3.30;;
56242;SDS011;42155;53.096;23.226;2023-11-21T11:15:38;7.28;;;3.60;;
56242;SDS011;42155;53.096;23.226;2023-11-21T11:17:39;5.70;;;3.33;;
56242;SDS011;42155;53.096;23.226;2023-11-21T11:19:40;9.40;;;3.60;;
56242;SDS011;42155;53.096;23.226;2023-11-21T11:21:45;5.70;;;2.88;;
56242;SDS011;42155;53.096;23.226;2023-11-21T11:28:15;5.95;;;3.47;;
56242;SDS011;42155;53.096;23.226;2023-11-21T11:37:34;9.00;;;2.75;;
56242;SDS011;42155;53.096;23.226;2023-11-21T11:39:38;4.80;;;2.95;;
56242;SDS011;42155;53.096;23.226;2023-11-21T11:41:42;8.45;;;3.10;;
56242;SDS011;42155;53.096;23.226;2023-11-21T11:43:44;5.68;;;2.92;;
56242;SDS011;42155;53.096;23.226;2023-11-21T11:45:44;10.23;;;3.25;;
56242;SDS011;42155;53.096;23.226;2023-11-21T11:47:44;6.93;;;3.60;;
56242;SDS011;42155;53.096;23.226;2023-11-21T11:54:35;7.25;;;3.30;;
56242;SDS011;42155;53.096;23.226;2023-11-21T11:56:37;5.95;;;3.10;;
56242;SDS011;42155;53.096;23.226;2023-11-21T11:58:37;6.57;;;3.92;;
56242;SDS011;42155;53.096;23.226;2023-11-21T12:00:38;11.30;;;3.70;;
56242;SDS011;42155;53.096;23.226;2023-11-21T12:02:39;7.07;;;3.75;;
56242;SDS011;42155;53.096;23.226;2023-11-21T12:04:40;9.27;;;3.67;;